Coitsville, Ohio
Current Conditions -  °F | °C
As of 5:51 AM on Thursday 27 Nov 2014 (Local Time) from KYNG Reporting Station
Light Snow Light Snow  
Wind Chill: 31°   Ceiling: 500
Heat Index: 31°   Visibility: 3mi
Dew Point: 29°   Wind: 3mph
Humidity: 92%   Direction: 290°WNW
Pressure: 30"   Gusts: NA
Location:  41.0609°N, 80.5426°W
Report Text: KYNG 271051Z 29003KT 3SM -SN BR OVC005 M01/M02 A3000 RMK AO2 SLP170 P0000 T10061017
Loading
Personal Weather Stations






























Interactive Weather Map New forecast layout! Learn more

10-Day Weather Forecast

Advertisements
Track Severe Weather on mobile